sensor_id;sensor_type;location;lat;lon;timestamp;P1;durP1;ratioP1;P2;durP2;ratioP2
3299;SDS011;1662;49.310;8.134;2023-01-31T00:00:01;15.20;;;9.50;;
3299;SDS011;1662;49.310;8.134;2023-01-31T00:02:29;18.30;;;9.20;;
3299;SDS011;1662;49.310;8.134;2023-01-31T00:04:55;11.38;;;8.98;;
3299;SDS011;1662;49.310;8.134;2023-01-31T00:10:00;18.90;;;10.27;;
3299;SDS011;1662;49.310;8.134;2023-01-31T00:12:26;12.10;;;9.07;;
3299;SDS011;1662;49.310;8.134;2023-01-31T00:14:51;14.53;;;10.00;;
3299;SDS011;1662;49.310;8.134;2023-01-31T00:17:17;13.97;;;9.50;;
3299;SDS011;1662;49.310;8.134;2023-01-31T00:19:42;14.03;;;9.07;;
3299;SDS011;1662;49.310;8.134;2023-01-31T00:22:08;16.93;;;9.10;;
3299;SDS011;1662;49.310;8.134;2023-01-31T00:24:33;15.57;;;9.77;;
3299;SDS011;1662;49.310;8.134;2023-01-31T00:29:59;13.35;;;8.13;;
3299;SDS011;1662;49.310;8.134;2023-01-31T00:32:24;19.65;;;9.35;;
3299;SDS011;1662;49.310;8.134;2023-01-31T00:34:51;15.70;;;9.38;;
3299;SDS011;1662;49.310;8.134;2023-01-31T00:37:17;11.07;;;8.75;;
3299;SDS011;1662;49.310;8.134;2023-01-31T00:39:43;17.90;;;8.05;;
3299;SDS011;1662;49.310;8.134;2023-01-31T00:42:09;13.73;;;7.60;;
3299;SDS011;1662;49.310;8.134;2023-01-31T00:44:35;17.13;;;9.30;;
3299;SDS011;1662;49.310;8.134;2023-01-31T00:48:22;13.95;;;8.50;;
3299;SDS011;1662;49.310;8.134;2023-01-31T00:50:48;14.93;;;8.50;;
3299;SDS011;1662;49.310;8.134;2023-01-31T00:53:14;17.43;;;8.63;;
3299;SDS011;1662;49.310;8.134;2023-01-31T00:55:41;11.77;;;8.25;;
3299;SDS011;1662;49.310;8.134;2023-01-31T00:58:07;12.23;;;8.20;;
3299;SDS011;1662;49.310;8.134;2023-01-31T01:00:33;13.30;;;7.37;;
3299;SDS011;1662;49.310;8.134;2023-01-31T01:02:59;15.80;;;8.60;;
3299;SDS011;1662;49.310;8.134;2023-01-31T01:07:51;18.05;;;7.45;;
3299;SDS011;1662;49.310;8.134;2023-01-31T01:10:17;13.93;;;7.93;;
3299;SDS011;1662;49.310;8.134;2023-01-31T01:12:42;9.60;;;7.70;;
3299;SDS011;1662;49.310;8.134;2023-01-31T01:15:08;17.37;;;7.70;;
3299;SDS011;1662;49.310;8.134;2023-01-31T01:17:34;9.40;;;7.07;;
3299;SDS011;1662;49.310;8.134;2023-01-31T01:19:59;15.10;;;8.70;;
3299;SDS011;1662;49.310;8.134;2023-01-31T01:22:28;18.70;;;7.00;;
3299;SDS011;1662;49.310;8.134;2023-01-31T01:27:27;12.45;;;7.53;;
3299;SDS011;1662;49.310;8.134;2023-01-31T01:29:56;18.55;;;8.95;;
3299;SDS011;1662;49.310;8.134;2023-01-31T01:32:23;10.48;;;6.47;;
3299;SDS011;1662;49.310;8.134;2023-01-31T01:34:48;15.50;;;6.93;;
3299;SDS011;1662;49.310;8.134;2023-01-31T01:37:14;16.87;;;6.90;;
3299;SDS011;1662;49.310;8.134;2023-01-31T01:39:46;12.15;;;7.80;;
3299;SDS011;1662;49.310;8.134;2023-01-31T01:42:24;8.90;;;6.05;;
3299;SDS011;1662;49.310;8.134;2023-01-31T01:47:55;14.25;;;6.50;;
3299;SDS011;1662;49.310;8.134;2023-01-31T01:52:39;11.35;;;6.22;;
3299;SDS011;1662;49.310;8.134;2023-01-31T01:58:00;11.68;;;6.15;;
3299;SDS011;1662;49.310;8.134;2023-01-31T02:00:40;10.35;;;6.50;;
3299;SDS011;1662;49.310;8.134;2023-01-31T02:03:09;10.05;;;6.35;;
3299;SDS011;1662;49.310;8.134;2023-01-31T02:06:52;12.32;;;6.70;;
3299;SDS011;1662;49.310;8.134;2023-01-31T02:09:24;16.03;;;6.50;;
3299;SDS011;1662;49.310;8.134;2023-01-31T02:11:59;11.60;;;6.50;;
3299;SDS011;1662;49.310;8.134;2023-01-31T02:14:24;11.80;;;6.13;;
3299;SDS011;1662;49.310;8.134;2023-01-31T02:16:51;16.90;;;7.50;;
3299;SDS011;1662;49.310;8.134;2023-01-31T02:29:11;11.70;;;6.80;;
3299;SDS011;1662;49.310;8.134;2023-01-31T02:34:48;15.15;;;8.35;;
3299;SDS011;1662;49.310;8.134;2023-01-31T02:40:17;18.65;;;8.95;;
3299;SDS011;1662;49.310;8.134;2023-01-31T02:49:35;12.23;;;7.43;;
3299;SDS011;1662;49.310;8.134;2023-01-31T02:52:19;18.83;;;7.10;;
3299;SDS011;1662;49.310;8.134;2023-01-31T02:55:11;13.85;;;7.22;;
3299;SDS011;1662;49.310;8.134;2023-01-31T02:58:04;14.50;;;7.13;;
3299;SDS011;1662;49.310;8.134;2023-01-31T03:00:33;16.58;;;7.55;;
3299;SDS011;1662;49.310;8.134;2023-01-31T03:04:58;15.23;;;7.15;;
3299;SDS011;1662;49.310;8.134;2023-01-31T03:07:25;10.97;;;7.67;;
3299;SDS011;1662;49.310;8.134;2023-01-31T03:25:13;19.42;;;8.15;;
3299;SDS011;1662;49.310;8.134;2023-01-31T03:27:44;14.88;;;7.35;;
3299;SDS011;1662;49.310;8.134;2023-01-31T03:30:17;11.98;;;8.15;;
3299;SDS011;1662;49.310;8.134;2023-01-31T03:32:48;16.73;;;9.50;;
3299;SDS011;1662;49.310;8.134;2023-01-31T03:35:20;22.38;;;8.63;;
3299;SDS011;1662;49.310;8.134;2023-01-31T03:37:52;18.00;;;9.27;;
3299;SDS011;1662;49.310;8.134;2023-01-31T03:40:33;11.82;;;8.38;;
3299;SDS011;1662;49.310;8.134;2023-01-31T03:44:30;13.57;;;8.57;;
3299;SDS011;1662;49.310;8.134;2023-01-31T03:47:05;22.13;;;8.70;;
3299;SDS011;1662;49.310;8.134;2023-01-31T03:49:45;16.27;;;9.75;;
3299;SDS011;1662;49.310;8.134;2023-01-31T03:52:16;11.18;;;7.97;;
3299;SDS011;1662;49.310;8.134;2023-01-31T03:54:49;14.73;;;7.82;;
3299;SDS011;1662;49.310;8.134;2023-01-31T03:57:23;13.88;;;7.95;;
3299;SDS011;1662;49.310;8.134;2023-01-31T04:02:51;13.95;;;9.05;;
3299;SDS011;1662;49.310;8.134;2023-01-31T04:05:22;12.13;;;8.63;;
3299;SDS011;1662;49.310;8.134;2023-01-31T04:07:54;15.77;;;8.35;;
3299;SDS011;1662;49.310;8.134;2023-01-31T04:10:20;17.25;;;9.38;;
3299;SDS011;1662;49.310;8.134;2023-01-31T04:12:46;17.42;;;9.15;;
3299;SDS011;1662;49.310;8.134;2023-01-31T04:15:12;11.57;;;8.43;;
3299;SDS011;1662;49.310;8.134;2023-01-31T04:17:38;16.00;;;8.20;;
3299;SDS011;1662;49.310;8.134;2023-01-31T04:22:02;18.77;;;9.80;;
3299;SDS011;1662;49.310;8.134;2023-01-31T04:24:28;17.47;;;10.47;;
3299;SDS011;1662;49.310;8.134;2023-01-31T04:26:53;16.10;;;9.97;;
3299;SDS011;1662;49.310;8.134;2023-01-31T04:29:19;20.27;;;10.07;;
3299;SDS011;1662;49.310;8.134;2023-01-31T04:31:44;20.40;;;10.80;;
3299;SDS011;1662;49.310;8.134;2023-01-31T04:34:11;23.20;;;10.70;;
3299;SDS011;1662;49.310;8.134;2023-01-31T04:36:37;22.33;;;11.60;;
3299;SDS011;1662;49.310;8.134;2023-01-31T04:39:02;21.40;;;11.07;;
3299;SDS011;1662;49.310;8.134;2023-01-31T04:42:15;25.63;;;10.93;;
3299;SDS011;1662;49.310;8.134;2023-01-31T04:44:41;15.70;;;10.27;;
3299;SDS011;1662;49.310;8.134;2023-01-31T04:47:07;17.53;;;10.80;;
3299;SDS011;1662;49.310;8.134;2023-01-31T04:49:32;21.73;;;11.90;;
3299;SDS011;1662;49.310;8.134;2023-01-31T04:51:58;21.20;;;12.70;;
3299;SDS011;1662;49.310;8.134;2023-01-31T04:54:23;14.37;;;9.70;;
3299;SDS011;1662;49.310;8.134;2023-01-31T04:56:49;13.93;;;9.20;;
3299;SDS011;1662;49.310;8.134;2023-01-31T04:59:15;16.43;;;9.10;;
3299;SDS011;1662;49.310;8.134;2023-01-31T05:02:57;17.92;;;9.00;;
3299;SDS011;1662;49.310;8.134;2023-01-31T05:05:23;15.30;;;8.07;;
3299;SDS011;1662;49.310;8.134;2023-01-31T05:07:49;15.00;;;8.90;;
3299;SDS011;1662;49.310;8.134;2023-01-31T05:10:14;18.07;;;9.90;;
3299;SDS011;1662;49.310;8.134;2023-01-31T05:12:40;13.67;;;8.67;;
3299;SDS011;1662;49.310;8.134;2023-01-31T05:15:06;11.10;;;8.77;;
3299;SDS011;1662;49.310;8.134;2023-01-31T05:17:32;17.50;;;8.60;;
3299;SDS011;1662;49.310;8.134;2023-01-31T05:22:39;15.52;;;9.93;;
3299;SDS011;1662;49.310;8.134;2023-01-31T05:25:07;18.00;;;10.83;;
3299;SDS011;1662;49.310;8.134;2023-01-31T05:27:32;19.63;;;9.90;;
3299;SDS011;1662;49.310;8.134;2023-01-31T05:29:58;16.80;;;11.37;;
3299;SDS011;1662;49.310;8.134;2023-01-31T05:32:25;16.15;;;10.55;;
3299;SDS011;1662;49.310;8.134;2023-01-31T05:34:50;22.33;;;11.55;;
3299;SDS011;1662;49.310;8.134;2023-01-31T05:37:16;16.17;;;10.00;;
3299;SDS011;1662;49.310;8.134;2023-01-31T05:41:52;21.38;;;11.27;;
3299;SDS011;1662;49.310;8.134;2023-01-31T05:44:18;24.30;;;12.40;;
3299;SDS011;1662;49.310;8.134;2023-01-31T05:46:43;23.53;;;12.73;;
3299;SDS011;1662;49.310;8.134;2023-01-31T05:49:09;19.37;;;11.30;;
3299;SDS011;1662;49.310;8.134;2023-01-31T05:51:35;24.42;;;13.98;;
3299;SDS011;1662;49.310;8.134;2023-01-31T05:54:01;18.67;;;10.43;;
3299;SDS011;1662;49.310;8.134;2023-01-31T05:56:26;24.33;;;12.33;;
3299;SDS011;1662;49.310;8.134;2023-01-31T06:00:48;19.80;;;10.95;;
3299;SDS011;1662;49.310;8.134;2023-01-31T06:03:14;19.57;;;7.83;;
3299;SDS011;1662;49.310;8.134;2023-01-31T06:05:39;20.30;;;10.20;;
3299;SDS011;1662;49.310;8.134;2023-01-31T06:08:07;17.57;;;10.20;;
3299;SDS011;1662;49.310;8.134;2023-01-31T06:10:34;22.92;;;10.40;;
3299;SDS011;1662;49.310;8.134;2023-01-31T06:13:00;14.23;;;9.10;;
3299;SDS011;1662;49.310;8.134;2023-01-31T06:15:25;16.30;;;9.70;;
3299;SDS011;1662;49.310;8.134;2023-01-31T06:19:46;19.75;;;9.85;;
3299;SDS011;1662;49.310;8.134;2023-01-31T06:22:12;17.13;;;9.97;;
3299;SDS011;1662;49.310;8.134;2023-01-31T06:24:38;22.33;;;10.63;;
3299;SDS011;1662;49.310;8.134;2023-01-31T06:27:03;16.23;;;9.93;;
3299;SDS011;1662;49.310;8.134;2023-01-31T06:29:29;15.63;;;10.40;;
3299;SDS011;1662;49.310;8.134;2023-01-31T06:31:57;14.60;;;10.30;;
3299;SDS011;1662;49.310;8.134;2023-01-31T06:34:25;17.58;;;9.70;;
3299;SDS011;1662;49.310;8.134;2023-01-31T06:39:43;21.05;;;10.50;;
3299;SDS011;1662;49.310;8.134;2023-01-31T06:42:09;19.57;;;10.40;;
3299;SDS011;1662;49.310;8.134;2023-01-31T06:44:37;14.30;;;8.90;;
3299;SDS011;1662;49.310;8.134;2023-01-31T06:47:05;20.15;;;10.48;;
3299;SDS011;1662;49.310;8.134;2023-01-31T06:49:30;15.03;;;9.40;;
3299;SDS011;1662;49.310;8.134;2023-01-31T06:51:58;14.07;;;8.38;;
3299;SDS011;1662;49.310;8.134;2023-01-31T06:54:26;18.27;;;8.80;;
3299;SDS011;1662;49.310;8.134;2023-01-31T06:59:24;14.82;;;9.77;;
3299;SDS011;1662;49.310;8.134;2023-01-31T07:01:52;17.88;;;8.68;;
3299;SDS011;1662;49.310;8.134;2023-01-31T07:04:18;19.77;;;10.03;;
3299;SDS011;1662;49.310;8.134;2023-01-31T07:06:43;21.30;;;9.10;;
3299;SDS011;1662;49.310;8.134;2023-01-31T07:09:09;19.00;;;11.77;;
3299;SDS011;1662;49.310;8.134;2023-01-31T07:11:36;28.50;;;10.57;;
3299;SDS011;1662;49.310;8.134;2023-01-31T07:14:02;17.98;;;10.05;;
3299;SDS011;1662;49.310;8.134;2023-01-31T07:17:58;19.35;;;9.85;;
3299;SDS011;1662;49.310;8.134;2023-01-31T07:20:24;14.80;;;9.75;;
3299;SDS011;1662;49.310;8.134;2023-01-31T07:22:53;20.02;;;10.00;;
3299;SDS011;1662;49.310;8.134;2023-01-31T07:25:22;18.38;;;9.88;;
3299;SDS011;1662;49.310;8.134;2023-01-31T07:27:49;18.33;;;9.48;;
3299;SDS011;1662;49.310;8.134;2023-01-31T07:30:14;14.30;;;9.40;;
3299;SDS011;1662;49.310;8.134;2023-01-31T07:32:40;21.67;;;11.57;;
3299;SDS011;1662;49.310;8.134;2023-01-31T07:37:33;16.17;;;9.43;;
3299;SDS011;1662;49.310;8.134;2023-01-31T07:39:59;25.27;;;14.20;;
3299;SDS011;1662;49.310;8.134;2023-01-31T07:42:24;16.47;;;10.60;;
3299;SDS011;1662;49.310;8.134;2023-01-31T07:44:54;21.52;;;10.13;;
3299;SDS011;1662;49.310;8.134;2023-01-31T07:47:19;17.80;;;9.75;;
3299;SDS011;1662;49.310;8.134;2023-01-31T07:49:45;18.07;;;8.70;;
3299;SDS011;1662;49.310;8.134;2023-01-31T07:54:59;21.30;;;8.80;;
3299;SDS011;1662;49.310;8.134;2023-01-31T07:57:24;21.27;;;10.67;;
3299;SDS011;1662;49.310;8.134;2023-01-31T07:59:50;21.47;;;9.20;;
3299;SDS011;1662;49.310;8.134;2023-01-31T08:02:16;15.03;;;9.00;;
3299;SDS011;1662;49.310;8.134;2023-01-31T08:05:01;17.88;;;10.55;;
3299;SDS011;1662;49.310;8.134;2023-01-31T08:07:29;16.17;;;9.90;;
3299;SDS011;1662;49.310;8.134;2023-01-31T08:09:55;14.65;;;9.05;;
3299;SDS011;1662;49.310;8.134;2023-01-31T08:12:20;19.10;;;10.97;;
3299;SDS011;1662;49.310;8.134;2023-01-31T08:17:25;14.23;;;9.00;;
3299;SDS011;1662;49.310;8.134;2023-01-31T08:19:51;15.93;;;10.33;;
3299;SDS011;1662;49.310;8.134;2023-01-31T08:22:16;19.43;;;10.73;;
3299;SDS011;1662;49.310;8.134;2023-01-31T08:24:42;23.87;;;13.57;;
3299;SDS011;1662;49.310;8.134;2023-01-31T08:27:07;20.13;;;11.90;;
3299;SDS011;1662;49.310;8.134;2023-01-31T08:29:33;30.50;;;11.23;;
3299;SDS011;1662;49.310;8.134;2023-01-31T08:31:59;21.10;;;11.53;;
3299;SDS011;1662;49.310;8.134;2023-01-31T08:36:36;20.13;;;11.73;;
3299;SDS011;1662;49.310;8.134;2023-01-31T08:39:02;27.50;;;13.47;;
3299;SDS011;1662;49.310;8.134;2023-01-31T08:41:28;28.30;;;12.05;;
3299;SDS011;1662;49.310;8.134;2023-01-31T08:43:54;22.35;;;10.20;;
3299;SDS011;1662;49.310;8.134;2023-01-31T08:46:22;26.08;;;14.15;;
3299;SDS011;1662;49.310;8.134;2023-01-31T08:48:48;18.48;;;10.75;;
3299;SDS011;1662;49.310;8.134;2023-01-31T08:51:14;35.73;;;14.33;;
3299;SDS011;1662;49.310;8.134;2023-01-31T08:55:18;20.10;;;11.20;;
3299;SDS011;1662;49.310;8.134;2023-01-31T08:57:45;22.77;;;10.18;;
3299;SDS011;1662;49.310;8.134;2023-01-31T09:00:11;22.20;;;10.10;;
3299;SDS011;1662;49.310;8.134;2023-01-31T09:02:36;25.20;;;11.35;;
3299;SDS011;1662;49.310;8.134;2023-01-31T09:05:04;20.02;;;10.35;;
3299;SDS011;1662;49.310;8.134;2023-01-31T09:07:32;17.52;;;9.00;;
3299;SDS011;1662;49.310;8.134;2023-01-31T09:10:00;21.88;;;11.40;;
3299;SDS011;1662;49.310;8.134;2023-01-31T09:14:17;21.23;;;11.07;;
3299;SDS011;1662;49.310;8.134;2023-01-31T09:16:42;21.50;;;13.17;;
3299;SDS011;1662;49.310;8.134;2023-01-31T09:19:10;25.05;;;11.82;;
3299;SDS011;1662;49.310;8.134;2023-01-31T09:21:36;18.40;;;10.00;;
3299;SDS011;1662;49.310;8.134;2023-01-31T09:24:02;22.73;;;9.70;;
3299;SDS011;1662;49.310;8.134;2023-01-31T09:26:28;16.63;;;9.10;;
3299;SDS011;1662;49.310;8.134;2023-01-31T09:28:54;11.98;;;7.35;;
3299;SDS011;1662;49.310;8.134;2023-01-31T09:32:44;13.45;;;9.10;;
3299;SDS011;1662;49.310;8.134;2023-01-31T09:35:13;19.30;;;9.00;;
3299;SDS011;1662;49.310;8.134;2023-01-31T09:37:40;18.10;;;9.07;;
3299;SDS011;1662;49.310;8.134;2023-01-31T09:40:06;23.00;;;11.83;;
3299;SDS011;1662;49.310;8.134;2023-01-31T09:42:43;20.63;;;10.02;;
3299;SDS011;1662;49.310;8.134;2023-01-31T09:45:11;16.13;;;10.15;;
3299;SDS011;1662;49.310;8.134;2023-01-31T09:47:48;20.90;;;10.75;;
3299;SDS011;1662;49.310;8.134;2023-01-31T09:51:59;15.35;;;9.25;;
3299;SDS011;1662;49.310;8.134;2023-01-31T09:54:31;20.33;;;9.77;;
3299;SDS011;1662;49.310;8.134;2023-01-31T09:57:01;17.98;;;10.05;;
3299;SDS011;1662;49.310;8.134;2023-01-31T10:00:21;21.13;;;10.43;;
3299;SDS011;1662;49.310;8.134;2023-01-31T10:11:52;16.27;;;10.45;;
3299;SDS011;1662;49.310;8.134;2023-01-31T10:14:47;15.85;;;10.93;;
3299;SDS011;1662;49.310;8.134;2023-01-31T10:17:21;27.90;;;12.63;;
3299;SDS011;1662;49.310;8.134;2023-01-31T10:20:04;17.50;;;8.52;;
3299;SDS011;1662;49.310;8.134;2023-01-31T10:24:57;16.10;;;9.87;;
3299;SDS011;1662;49.310;8.134;2023-01-31T10:29:49;16.17;;;8.70;;
3299;SDS011;1662;49.310;8.134;2023-01-31T10:32:36;17.77;;;9.88;;
3299;SDS011;1662;49.310;8.134;2023-01-31T10:35:29;23.85;;;11.23;;
3299;SDS011;1662;49.310;8.134;2023-01-31T10:38:00;15.75;;;8.95;;
3299;SDS011;1662;49.310;8.134;2023-01-31T10:40:36;17.20;;;9.75;;
3299;SDS011;1662;49.310;8.134;2023-01-31T10:45:44;20.50;;;11.18;;
3299;SDS011;1662;49.310;8.134;2023-01-31T10:49:14;9.70;;;7.32;;
3299;SDS011;1662;49.310;8.134;2023-01-31T10:51:44;14.10;;;7.40;;
3299;SDS011;1662;49.310;8.134;2023-01-31T10:56:44;11.70;;;7.35;;
3299;SDS011;1662;49.310;8.134;2023-01-31T11:02:00;10.93;;;6.80;;
3299;SDS011;1662;49.310;8.134;2023-01-31T11:04:28;14.95;;;7.45;;
3299;SDS011;1662;49.310;8.134;2023-01-31T11:09:09;12.05;;;8.13;;
3299;SDS011;1662;49.310;8.134;2023-01-31T11:11:51;19.88;;;8.63;;
3299;SDS011;1662;49.310;8.134;2023-01-31T11:14:27;13.40;;;7.70;;
3299;SDS011;1662;49.310;8.134;2023-01-31T11:17:06;12.70;;;6.78;;
3299;SDS011;1662;49.310;8.134;2023-01-31T11:19:59;11.45;;;7.85;;
3299;SDS011;1662;49.310;8.134;2023-01-31T11:22:25;16.73;;;9.40;;
3299;SDS011;1662;49.310;8.134;2023-01-31T11:27:58;12.63;;;7.30;;
3299;SDS011;1662;49.310;8.134;2023-01-31T11:30:36;7.55;;;6.40;;
3299;SDS011;1662;49.310;8.134;2023-01-31T11:33:05;8.68;;;5.65;;
3299;SDS011;1662;49.310;8.134;2023-01-31T11:35:33;12.02;;;7.70;;
3299;SDS011;1662;49.310;8.134;2023-01-31T11:38:18;23.15;;;5.47;;
3299;SDS011;1662;49.310;8.134;2023-01-31T11:40:46;13.52;;;7.35;;
3299;SDS011;1662;49.310;8.134;2023-01-31T11:47:25;9.27;;;5.70;;
3299;SDS011;1662;49.310;8.134;2023-01-31T11:49:56;8.63;;;5.28;;
3299;SDS011;1662;49.310;8.134;2023-01-31T11:52:26;10.43;;;5.40;;
3299;SDS011;1662;49.310;8.134;2023-01-31T11:54:55;10.77;;;5.60;;
3299;SDS011;1662;49.310;8.134;2023-01-31T11:57:33;6.15;;;5.57;;
3299;SDS011;1662;49.310;8.134;2023-01-31T12:00:03;9.43;;;6.00;;
3299;SDS011;1662;49.310;8.134;2023-01-31T12:03:06;10.07;;;5.50;;
3299;SDS011;1662;49.310;8.134;2023-01-31T12:06:58;8.07;;;5.63;;
3299;SDS011;1662;49.310;8.134;2023-01-31T12:09:30;9.65;;;5.82;;
3299;SDS011;1662;49.310;8.134;2023-01-31T12:12:20;12.70;;;7.10;;
3299;SDS011;1662;49.310;8.134;2023-01-31T12:14:54;9.82;;;6.93;;
3299;SDS011;1662;49.310;8.134;2023-01-31T12:17:23;9.48;;;6.47;;
3299;SDS011;1662;49.310;8.134;2023-01-31T12:22:20;12.00;;;6.88;;
3299;SDS011;1662;49.310;8.134;2023-01-31T12:26:55;10.43;;;6.45;;
3299;SDS011;1662;49.310;8.134;2023-01-31T12:32:16;11.93;;;6.32;;
3299;SDS011;1662;49.310;8.134;2023-01-31T12:35:03;11.18;;;6.35;;
3299;SDS011;1662;49.310;8.134;2023-01-31T12:40:55;7.90;;;5.90;;
3299;SDS011;1662;49.310;8.134;2023-01-31T12:48:00;9.75;;;6.15;;
3299;SDS011;1662;49.310;8.134;2023-01-31T12:53:30;10.27;;;6.25;;
3299;SDS011;1662;49.310;8.134;2023-01-31T12:56:27;17.15;;;6.45;;
3299;SDS011;1662;49.310;8.134;2023-01-31T13:06:49;12.83;;;6.80;;
3299;SDS011;1662;49.310;8.134;2023-01-31T13:11:48;13.93;;;8.30;;
3299;SDS011;1662;49.310;8.134;2023-01-31T13:14:21;8.40;;;6.88;;
3299;SDS011;1662;49.310;8.134;2023-01-31T13:16:53;12.75;;;7.18;;
3299;SDS011;1662;49.310;8.134;2023-01-31T13:19:23;11.55;;;6.20;;
3299;SDS011;1662;49.310;8.134;2023-01-31T13:23:59;12.25;;;7.35;;
3299;SDS011;1662;49.310;8.134;2023-01-31T13:26:31;16.20;;;6.80;;
3299;SDS011;1662;49.310;8.134;2023-01-31T13:29:09;12.73;;;7.40;;
3299;SDS011;1662;49.310;8.134;2023-01-31T13:31:38;12.15;;;7.55;;
3299;SDS011;1662;49.310;8.134;2023-01-31T13:37:17;9.33;;;7.63;;
3299;SDS011;1662;49.310;8.134;2023-01-31T13:42:36;11.68;;;6.15;;
3299;SDS011;1662;49.310;8.134;2023-01-31T13:45:03;15.57;;;6.77;;
3299;SDS011;1662;49.310;8.134;2023-01-31T13:47:34;9.90;;;6.85;;
3299;SDS011;1662;49.310;8.134;2023-01-31T13:50:11;14.00;;;7.22;;
3299;SDS011;1662;49.310;8.134;2023-01-31T13:52:46;7.97;;;6.28;;
3299;SDS011;1662;49.310;8.134;2023-01-31T13:55:17;10.63;;;6.70;;
3299;SDS011;1662;49.310;8.134;2023-01-31T13:57:51;9.93;;;6.10;;
3299;SDS011;1662;49.310;8.134;2023-01-31T14:01:05;10.30;;;6.73;;
3299;SDS011;1662;49.310;8.134;2023-01-31T14:09:32;10.07;;;7.10;;
3299;SDS011;1662;49.310;8.134;2023-01-31T14:11:59;14.97;;;7.70;;
3299;SDS011;1662;49.310;8.134;2023-01-31T14:22:31;25.47;;;16.00;;
3299;SDS011;1662;49.310;8.134;2023-01-31T14:27:44;11.50;;;8.90;;
3299;SDS011;1662;49.310;8.134;2023-01-31T14:50:24;15.03;;;9.93;;
3299;SDS011;1662;49.310;8.134;2023-01-31T14:58:24;14.10;;;9.43;;
3299;SDS011;1662;49.310;8.134;2023-01-31T15:00:53;12.43;;;9.30;;
3299;SDS011;1662;49.310;8.134;2023-01-31T15:03:23;18.93;;;9.30;;
3299;SDS011;1662;49.310;8.134;2023-01-31T15:06:04;14.10;;;8.60;;
3299;SDS011;1662;49.310;8.134;2023-01-31T15:08:43;18.77;;;9.53;;
3299;SDS011;1662;49.310;8.134;2023-01-31T15:13:58;9.50;;;7.63;;
3299;SDS011;1662;49.310;8.134;2023-01-31T15:18:08;12.50;;;9.40;;
3299;SDS011;1662;49.310;8.134;2023-01-31T15:20:46;15.63;;;8.27;;
3299;SDS011;1662;49.310;8.134;2023-01-31T15:23:16;15.03;;;8.83;;
3299;SDS011;1662;49.310;8.134;2023-01-31T15:25:54;16.17;;;9.13;;
3299;SDS011;1662;49.310;8.134;2023-01-31T15:28:24;11.80;;;8.40;;
3299;SDS011;1662;49.310;8.134;2023-01-31T15:30:58;13.93;;;8.37;;
3299;SDS011;1662;49.310;8.134;2023-01-31T15:33:31;14.53;;;8.37;;
3299;SDS011;1662;49.310;8.134;2023-01-31T15:36:52;14.43;;;7.87;;
3299;SDS011;1662;49.310;8.134;2023-01-31T15:39:42;16.90;;;13.45;;
3299;SDS011;1662;49.310;8.134;2023-01-31T15:42:24;19.67;;;12.90;;
3299;SDS011;1662;49.310;8.134;2023-01-31T15:47:59;18.63;;;10.93;;
3299;SDS011;1662;49.310;8.134;2023-01-31T15:50:52;12.20;;;10.00;;
3299;SDS011;1662;49.310;8.134;2023-01-31T15:53:26;11.10;;;6.03;;
3299;SDS011;1662;49.310;8.134;2023-01-31T15:59:00;8.13;;;6.13;;
3299;SDS011;1662;49.310;8.134;2023-01-31T16:01:34;20.17;;;11.00;;
3299;SDS011;1662;49.310;8.134;2023-01-31T16:03:59;7.93;;;6.80;;
3299;SDS011;1662;49.310;8.134;2023-01-31T16:08:52;15.50;;;12.33;;
3299;SDS011;1662;49.310;8.134;2023-01-31T16:11:19;6.63;;;6.03;;
3299;SDS011;1662;49.310;8.134;2023-01-31T16:13:45;27.27;;;14.13;;
3299;SDS011;1662;49.310;8.134;2023-01-31T16:18:50;13.00;;;9.60;;
3299;SDS011;1662;49.310;8.134;2023-01-31T16:26:44;8.85;;;7.10;;
3299;SDS011;1662;49.310;8.134;2023-01-31T16:29:20;15.70;;;9.70;;
3299;SDS011;1662;49.310;8.134;2023-01-31T16:31:49;10.53;;;8.13;;
3299;SDS011;1662;49.310;8.134;2023-01-31T16:34:25;8.95;;;6.18;;
3299;SDS011;1662;49.310;8.134;2023-01-31T16:40:45;10.50;;;8.13;;
3299;SDS011;1662;49.310;8.134;2023-01-31T16:50:49;10.27;;;8.02;;
3299;SDS011;1662;49.310;8.134;2023-01-31T16:53:32;13.07;;;10.40;;
3299;SDS011;1662;49.310;8.134;2023-01-31T17:00:04;9.30;;;7.00;;
3299;SDS011;1662;49.310;8.134;2023-01-31T17:02:32;15.10;;;9.70;;
3299;SDS011;1662;49.310;8.134;2023-01-31T17:05:08;10.57;;;8.55;;
3299;SDS011;1662;49.310;8.134;2023-01-31T17:07:43;9.98;;;7.45;;
3299;SDS011;1662;49.310;8.134;2023-01-31T17:10:22;9.00;;;7.47;;
3299;SDS011;1662;49.310;8.134;2023-01-31T17:13:05;8.85;;;8.05;;
3299;SDS011;1662;49.310;8.134;2023-01-31T17:17:39;9.40;;;6.67;;
3299;SDS011;1662;49.310;8.134;2023-01-31T17:20:05;10.90;;;8.43;;
3299;SDS011;1662;49.310;8.134;2023-01-31T17:22:31;7.93;;;7.17;;
3299;SDS011;1662;49.310;8.134;2023-01-31T17:24:56;6.23;;;5.63;;
3299;SDS011;1662;49.310;8.134;2023-01-31T17:27:22;6.90;;;6.23;;
3299;SDS011;1662;49.310;8.134;2023-01-31T17:29:48;7.80;;;7.00;;
3299;SDS011;1662;49.310;8.134;2023-01-31T17:32:15;8.43;;;7.47;;
3299;SDS011;1662;49.310;8.134;2023-01-31T17:37:18;8.50;;;5.93;;
3299;SDS011;1662;49.310;8.134;2023-01-31T17:39:43;6.30;;;5.70;;
3299;SDS011;1662;49.310;8.134;2023-01-31T17:42:14;7.67;;;6.97;;
3299;SDS011;1662;49.310;8.134;2023-01-31T17:44:42;20.37;;;14.60;;
3299;SDS011;1662;49.310;8.134;2023-01-31T17:47:10;9.30;;;8.33;;
3299;SDS011;1662;49.310;8.134;2023-01-31T17:49:35;5.32;;;4.90;;
3299;SDS011;1662;49.310;8.134;2023-01-31T17:54:43;4.20;;;3.90;;
3299;SDS011;1662;49.310;8.134;2023-01-31T17:57:09;7.07;;;5.73;;
3299;SDS011;1662;49.310;8.134;2023-01-31T17:59:34;5.07;;;4.67;;
3299;SDS011;1662;49.310;8.134;2023-01-31T18:02:00;9.83;;;4.97;;
3299;SDS011;1662;49.310;8.134;2023-01-31T18:04:27;6.75;;;5.95;;
3299;SDS011;1662;49.310;8.134;2023-01-31T18:06:52;6.90;;;5.10;;
3299;SDS011;1662;49.310;8.134;2023-01-31T18:09:18;4.70;;;4.30;;
3299;SDS011;1662;49.310;8.134;2023-01-31T18:14:17;5.40;;;5.00;;
3299;SDS011;1662;49.310;8.134;2023-01-31T18:16:42;5.23;;;4.57;;
3299;SDS011;1662;49.310;8.134;2023-01-31T18:19:08;5.13;;;4.67;;
3299;SDS011;1662;49.310;8.134;2023-01-31T18:21:38;3.60;;;3.38;;
3299;SDS011;1662;49.310;8.134;2023-01-31T18:24:06;5.43;;;4.20;;
3299;SDS011;1662;49.310;8.134;2023-01-31T18:26:34;4.20;;;3.97;;
3299;SDS011;1662;49.310;8.134;2023-01-31T18:29:00;4.83;;;4.53;;
3299;SDS011;1662;49.310;8.134;2023-01-31T18:33:30;4.10;;;3.80;;
3299;SDS011;1662;49.310;8.134;2023-01-31T18:35:59;3.03;;;2.93;;
3299;SDS011;1662;49.310;8.134;2023-01-31T18:38:25;5.25;;;4.75;;
3299;SDS011;1662;49.310;8.134;2023-01-31T18:40:53;3.90;;;3.58;;
3299;SDS011;1662;49.310;8.134;2023-01-31T18:43:19;3.88;;;3.67;;
3299;SDS011;1662;49.310;8.134;2023-01-31T18:45:45;5.43;;;4.93;;
3299;SDS011;1662;49.310;8.134;2023-01-31T18:48:13;7.60;;;6.80;;
3299;SDS011;1662;49.310;8.134;2023-01-31T18:52:58;21.60;;;13.70;;
3299;SDS011;1662;49.310;8.134;2023-01-31T18:55:26;17.37;;;13.07;;
3299;SDS011;1662;49.310;8.134;2023-01-31T18:57:54;27.77;;;18.33;;
3299;SDS011;1662;49.310;8.134;2023-01-31T19:00:22;8.83;;;5.97;;
3299;SDS011;1662;49.310;8.134;2023-01-31T19:02:51;18.00;;;15.03;;
3299;SDS011;1662;49.310;8.134;2023-01-31T19:05:18;17.55;;;12.30;;
3299;SDS011;1662;49.310;8.134;2023-01-31T19:07:47;10.32;;;8.38;;
3299;SDS011;1662;49.310;8.134;2023-01-31T19:12:47;11.10;;;8.98;;
3299;SDS011;1662;49.310;8.134;2023-01-31T19:15:13;9.30;;;7.53;;
3299;SDS011;1662;49.310;8.134;2023-01-31T19:17:38;13.50;;;10.43;;
3299;SDS011;1662;49.310;8.134;2023-01-31T19:20:04;8.10;;;7.27;;
3299;SDS011;1662;49.310;8.134;2023-01-31T19:22:30;12.05;;;9.75;;
3299;SDS011;1662;49.310;8.134;2023-01-31T19:24:59;13.90;;;8.68;;
3299;SDS011;1662;49.310;8.134;2023-01-31T19:27:28;17.93;;;12.57;;
3299;SDS011;1662;49.310;8.134;2023-01-31T19:32:30;11.40;;;8.50;;
3299;SDS011;1662;49.310;8.134;2023-01-31T19:34:56;17.10;;;11.90;;
3299;SDS011;1662;49.310;8.134;2023-01-31T19:37:21;7.90;;;7.13;;
3299;SDS011;1662;49.310;8.134;2023-01-31T19:39:47;3.60;;;3.40;;
3299;SDS011;1662;49.310;8.134;2023-01-31T19:42:15;4.90;;;4.30;;
3299;SDS011;1662;49.310;8.134;2023-01-31T19:44:40;18.20;;;13.00;;